Time;durP1;ratioP1;P1;durP2;ratioP2;P2;SDS_P1;SDS_P2;PMS_P1;PMS_P2;Temp;Humidity;BMP_temperature;BMP_pressure;BME280_temperature;BME280_humidity;BME280_pressure;Samples;Min_cycle;Max_cycle;Signal;HPM_P1;HPM_P2
2023/09/09 00:00:49;;;;;;;;;;;18.00;99.90;;;;;;4937317;29;19930;-87
2023/09/09 00:03:15;;;;;;;;;;;18.00;99.90;;;;;;4935344;28;19935;-87
2023/09/09 00:05:40;;;;;;;;;;;18.00;99.90;;;;;;4936203;29;19992;-87
2023/09/09 00:08:06;;;;;;;;;;;17.90;99.90;;;;;;4932174;28;19933;-87
2023/09/09 00:10:35;;;;;;;;;;;17.90;99.90;;;;;;4936531;28;20061;-87
2023/09/09 00:13:03;;;;;;;;;;;17.90;99.90;;;;;;4936542;29;19935;-88
2023/09/09 00:15:29;;;;;;;;;;;17.80;99.90;;;;;;4942248;28;19927;-88
2023/09/09 00:17:55;;;;;;;;;;;17.80;99.90;;;;;;4940378;29;19937;-87
2023/09/09 00:20:34;;;;;;;;;;;17.80;99.90;;;;;;4939785;28;19927;-87
2023/09/09 00:23:07;;;;;;;;;;;17.80;99.90;;;;;;4939792;29;19969;-88
2023/09/09 00:25:33;;;;;;;;;;;17.80;99.90;;;;;;4938886;28;20014;-88
2023/09/09 00:27:58;;;;;;;;;;;17.70;99.90;;;;;;4939401;29;20472;-87
2023/09/09 00:30:24;;;;;;;;;;;17.70;99.90;;;;;;4937831;29;19938;-88
2023/09/09 00:32:49;;;;;;;;;;;17.70;99.90;;;;;;4940468;28;19974;-88
2023/09/09 00:35:15;;;;;;;;;;;17.70;99.90;;;;;;4938350;28;19931;-88
2023/09/09 00:37:41;;;;;;;;;;;17.70;99.90;;;;;;4939293;29;20002;-88
2023/09/09 00:40:07;;;;;;;;;;;17.70;99.90;;;;;;4940700;29;19937;-87
2023/09/09 00:42:32;;;;;;;;;;;17.70;99.90;;;;;;4938664;29;19926;-87
2023/09/09 00:44:58;;;;;;;;;;;17.70;99.90;;;;;;4940367;28;19937;-87
2023/09/09 00:47:24;;;;;;;;;;;17.60;99.90;;;;;;4930935;28;20412;-87
2023/09/09 00:49:50;;;;;;;;;;;17.60;99.90;;;;;;4934873;28;19990;-87
2023/09/09 00:52:15;;;;;;;;;;;17.60;99.90;;;;;;4920056;28;19962;-87
2023/09/09 00:54:41;;;;;;;;;;;17.60;99.90;;;;;;4936483;28;19931;-87
2023/09/09 00:57:07;;;;;;;;;;;17.60;99.90;;;;;;4954731;28;20107;-87
2023/09/09 00:59:33;;;;;;;;;;;17.50;99.90;;;;;;4936674;29;19926;-87
2023/09/09 01:01:58;;;;;;;;;;;17.50;99.90;;;;;;4937537;28;19950;-87
2023/09/09 01:04:24;;;;;;;;;;;17.50;99.90;;;;;;4917323;28;19935;-88
2023/09/09 01:06:51;;;;;;;;;;;17.50;99.90;;;;;;4934444;29;19927;-87
2023/09/09 01:09:18;;;;;;;;;;;17.40;99.90;;;;;;4935313;29;19934;-87
2023/09/09 01:11:43;;;;;;;;;;;17.40;99.90;;;;;;4932138;28;19980;-88
2023/09/09 01:14:09;;;;;;;;;;;17.40;99.90;;;;;;4935439;29;20045;-87
2023/09/09 01:16:34;;;;;;;;;;;17.40;99.90;;;;;;4934115;29;19930;-88
2023/09/09 01:19:01;;;;;;;;;;;17.40;99.90;;;;;;4936584;29;19954;-88
2023/09/09 01:21:28;;;;;;;;;;;17.40;99.90;;;;;;4934143;29;19931;-87
2023/09/09 01:23:53;;;;;;;;;;;17.30;99.90;;;;;;4941515;28;20049;-88
2023/09/09 01:26:19;;;;;;;;;;;17.30;99.90;;;;;;4919037;28;19973;-87
2023/09/09 01:28:45;;;;;;;;;;;17.30;99.90;;;;;;4936643;28;19935;-87
2023/09/09 01:31:12;;;;;;;;;;;17.30;99.90;;;;;;4934598;29;20029;-87
2023/09/09 01:33:38;;;;;;;;;;;17.20;99.90;;;;;;4937705;29;20012;-87
2023/09/09 01:36:04;;;;;;;;;;;17.20;99.90;;;;;;4936044;28;19953;-87
2023/09/09 01:38:34;;;;;;;;;;;17.20;99.90;;;;;;4934717;29;19990;-87
2023/09/09 01:41:00;;;;;;;;;;;17.20;99.90;;;;;;5001828;28;19934;-87
2023/09/09 01:43:25;;;;;;;;;;;17.20;99.90;;;;;;4935299;29;19935;-88
2023/09/09 01:45:51;;;;;;;;;;;17.10;99.90;;;;;;4936435;29;20010;-88
2023/09/09 01:48:16;;;;;;;;;;;17.10;99.90;;;;;;5002099;28;19931;-87
2023/09/09 01:50:44;;;;;;;;;;;17.10;99.90;;;;;;4927863;29;19931;-88
2023/09/09 01:53:09;;;;;;;;;;;17.10;99.90;;;;;;4937083;28;19989;-88
2023/09/09 01:55:35;;;;;;;;;;;17.10;99.90;;;;;;4938737;29;19942;-88
2023/09/09 01:58:00;;;;;;;;;;;17.10;99.90;;;;;;4940939;28;19931;-87
2023/09/09 02:00:27;;;;;;;;;;;17.00;99.90;;;;;;4941188;29;19934;-88
2023/09/09 02:02:54;;;;;;;;;;;17.00;99.90;;;;;;4940296;28;19942;-87
2023/09/09 02:05:20;;;;;;;;;;;17.00;99.90;;;;;;4935509;28;19953;-87
2023/09/09 02:07:45;;;;;;;;;;;17.00;99.90;;;;;;4935903;28;19935;-88
2023/09/09 02:10:11;;;;;;;;;;;16.90;99.90;;;;;;4942194;28;19936;-88
2023/09/09 02:12:36;;;;;;;;;;;16.90;99.90;;;;;;4933391;29;21938;-87
2023/09/09 02:15:02;;;;;;;;;;;16.90;99.90;;;;;;4934174;29;19931;-88
2023/09/09 02:17:28;;;;;;;;;;;16.90;99.90;;;;;;4938571;29;19926;-87
2023/09/09 02:19:57;;;;;;;;;;;16.90;99.90;;;;;;4939011;29;19930;-86
2023/09/09 02:22:23;;;;;;;;;;;16.90;99.90;;;;;;4937730;29;19934;-87
2023/09/09 02:24:55;;;;;;;;;;;17.00;99.90;;;;;;4938252;28;19931;-87
2023/09/09 02:27:21;;;;;;;;;;;17.00;99.90;;;;;;4938112;29;19926;-87
2023/09/09 02:29:47;;;;;;;;;;;17.00;99.90;;;;;;4935638;29;19927;-87
2023/09/09 02:32:12;;;;;;;;;;;17.00;99.90;;;;;;4927569;29;20073;-88
2023/09/09 02:34:38;;;;;;;;;;;17.00;99.90;;;;;;4937053;28;19938;-88
2023/09/09 02:37:11;;;;;;;;;;;17.00;99.90;;;;;;4938240;28;19931;-87
2023/09/09 02:39:36;;;;;;;;;;;17.00;99.90;;;;;;4937302;29;19931;-87
2023/09/09 02:42:02;;;;;;;;;;;16.90;99.90;;;;;;4938939;29;19931;-87
2023/09/09 02:44:27;;;;;;;;;;;16.90;99.90;;;;;;4937893;28;20013;-88
2023/09/09 02:46:53;;;;;;;;;;;16.80;99.90;;;;;;4941864;28;19935;-87
2023/09/09 02:49:18;;;;;;;;;;;16.80;99.90;;;;;;4936137;29;20580;-87
2023/09/09 02:51:44;;;;;;;;;;;16.80;99.90;;;;;;4933271;28;19993;-87
2023/09/09 02:54:10;;;;;;;;;;;16.80;99.90;;;;;;4937427;28;19927;-87
2023/09/09 02:56:35;;;;;;;;;;;16.80;99.90;;;;;;4939691;29;19970;-87
2023/09/09 02:59:01;;;;;;;;;;;16.70;99.90;;;;;;4905865;28;19935;-88
2023/09/09 03:01:26;;;;;;;;;;;16.70;99.90;;;;;;4937471;29;19998;-87
2023/09/09 03:03:52;;;;;;;;;;;16.70;99.90;;;;;;4932208;29;19934;-88
2023/09/09 03:06:17;;;;;;;;;;;16.70;99.90;;;;;;4920241;29;20021;-88
2023/09/09 03:08:44;;;;;;;;;;;16.70;99.90;;;;;;4938328;29;19930;-88
2023/09/09 03:11:09;;;;;;;;;;;16.70;99.90;;;;;;4938602;29;19927;-88
2023/09/09 03:13:35;;;;;;;;;;;16.70;99.90;;;;;;4936877;28;19969;-88
2023/09/09 03:16:01;;;;;;;;;;;16.60;99.90;;;;;;4923069;28;20025;-87
2023/09/09 03:18:26;;;;;;;;;;;16.60;99.90;;;;;;4938303;29;19927;-88
2023/09/09 03:20:52;;;;;;;;;;;16.60;99.90;;;;;;4936782;28;20360;-88
2023/09/09 03:23:17;;;;;;;;;;;16.60;99.90;;;;;;4938979;28;19926;-87
2023/09/09 03:25:43;;;;;;;;;;;16.50;99.90;;;;;;4937401;28;19931;-88
2023/09/09 03:28:08;;;;;;;;;;;16.50;99.90;;;;;;4940318;29;19930;-89
2023/09/09 03:30:54;;;;;;;;;;;16.50;99.90;;;;;;4954493;28;19938;-88
2023/09/09 03:33:20;;;;;;;;;;;16.50;99.90;;;;;;4938770;29;19931;-88
2023/09/09 03:35:45;;;;;;;;;;;16.50;99.90;;;;;;4923349;29;19938;-89
2023/09/09 03:38:11;;;;;;;;;;;16.40;99.90;;;;;;4943733;28;20006;-88
2023/09/09 03:40:36;;;;;;;;;;;16.40;99.90;;;;;;4937406;29;19927;-88
2023/09/09 03:43:02;;;;;;;;;;;16.40;99.90;;;;;;4936929;29;19931;-89
2023/09/09 03:45:27;;;;;;;;;;;16.40;99.90;;;;;;4932904;28;19985;-90
2023/09/09 03:47:53;;;;;;;;;;;16.40;99.90;;;;;;4937784;29;20033;-88
2023/09/09 03:50:18;;;;;;;;;;;16.40;99.90;;;;;;4937690;29;19927;-89
2023/09/09 03:52:44;;;;;;;;;;;16.50;99.90;;;;;;5004757;28;19937;-88
2023/09/09 03:55:11;;;;;;;;;;;16.50;99.90;;;;;;4936230;29;19938;-89
2023/09/09 03:57:37;;;;;;;;;;;16.50;99.90;;;;;;4939113;28;20034;-88
2023/09/09 04:00:03;;;;;;;;;;;16.40;99.90;;;;;;4936080;28;20408;-87
2023/09/09 04:02:28;;;;;;;;;;;16.40;99.90;;;;;;4939262;29;20054;-89
2023/09/09 04:04:54;;;;;;;;;;;16.40;99.90;;;;;;4931827;28;19926;-88
2023/09/09 04:07:19;;;;;;;;;;;16.40;99.90;;;;;;4938055;29;19934;-88
2023/09/09 04:09:45;;;;;;;;;;;16.40;99.90;;;;;;4934585;28;19976;-88
2023/09/09 04:12:10;;;;;;;;;;;16.30;99.90;;;;;;4937314;29;19942;-89
2023/09/09 04:14:39;;;;;;;;;;;16.30;99.90;;;;;;4936362;29;19931;-89
2023/09/09 04:17:05;;;;;;;;;;;16.30;99.90;;;;;;4932641;29;19927;-89
2023/09/09 04:19:31;;;;;;;;;;;16.20;99.90;;;;;;4937798;29;19926;-89
2023/09/09 04:21:57;;;;;;;;;;;16.20;99.90;;;;;;4936187;29;19986;-88
2023/09/09 04:24:22;;;;;;;;;;;16.10;99.90;;;;;;4933505;29;19934;-89
2023/09/09 04:26:48;;;;;;;;;;;16.20;99.90;;;;;;4935055;28;19927;-88
2023/09/09 04:29:14;;;;;;;;;;;16.10;99.90;;;;;;4934406;29;19962;-88
2023/09/09 04:31:39;;;;;;;;;;;16.10;99.90;;;;;;4934318;29;19938;-88
2023/09/09 04:34:05;;;;;;;;;;;16.10;99.90;;;;;;4949426;28;19976;-88
2023/09/09 04:36:30;;;;;;;;;;;16.10;99.90;;;;;;4935810;29;20786;-89
2023/09/09 04:38:56;;;;;;;;;;;16.10;99.90;;;;;;4933081;29;19983;-88
2023/09/09 04:41:22;;;;;;;;;;;16.00;99.90;;;;;;4938412;28;19934;-89
2023/09/09 04:43:47;;;;;;;;;;;16.10;99.90;;;;;;4936067;28;19934;-88
2023/09/09 04:46:13;;;;;;;;;;;16.10;99.90;;;;;;4936250;28;20053;-89
2023/09/09 04:48:38;;;;;;;;;;;16.00;99.90;;;;;;4937808;28;20456;-89
2023/09/09 04:51:04;;;;;;;;;;;16.00;99.90;;;;;;4937397;28;19927;-88
2023/09/09 04:53:29;;;;;;;;;;;16.00;99.90;;;;;;4937506;29;20021;-88
2023/09/09 04:55:55;;;;;;;;;;;16.00;99.90;;;;;;4937363;29;19938;-89
2023/09/09 04:58:20;;;;;;;;;;;16.00;99.90;;;;;;4938506;29;19937;-88
2023/09/09 05:00:46;;;;;;;;;;;16.00;99.90;;;;;;4936410;29;19927;-88
2023/09/09 05:03:11;;;;;;;;;;;16.00;99.90;;;;;;4938475;28;19977;-88
2023/09/09 05:05:37;;;;;;;;;;;16.00;99.90;;;;;;4934983;29;19956;-89
2023/09/09 05:08:03;;;;;;;;;;;16.00;99.90;;;;;;4934047;29;19954;-89
2023/09/09 05:10:29;;;;;;;;;;;16.00;99.90;;;;;;4927731;28;19935;-89
2023/09/09 05:12:55;;;;;;;;;;;16.00;99.90;;;;;;4933236;29;20009;-89
2023/09/09 05:15:21;;;;;;;;;;;16.00;99.90;;;;;;4935601;28;19931;-89
2023/09/09 05:17:47;;;;;;;;;;;16.10;99.90;;;;;;4937596;29;19934;-89
2023/09/09 05:20:13;;;;;;;;;;;16.10;99.90;;;;;;4936698;29;19927;-88
2023/09/09 05:22:39;;;;;;;;;;;16.10;99.90;;;;;;4952375;28;19934;-89
2023/09/09 05:25:04;;;;;;;;;;;16.10;99.90;;;;;;4935622;29;19932;-89
2023/09/09 05:27:30;;;;;;;;;;;16.10;99.90;;;;;;4931671;29;20018;-88
2023/09/09 05:29:56;;;;;;;;;;;16.10;99.90;;;;;;4936406;28;19934;-89
2023/09/09 05:32:22;;;;;;;;;;;16.20;99.90;;;;;;4935256;29;19989;-89
2023/09/09 05:34:47;;;;;;;;;;;16.20;99.90;;;;;;4932819;28;19930;-87
2023/09/09 05:37:13;;;;;;;;;;;16.20;99.90;;;;;;4936460;28;19927;-88
2023/09/09 05:39:38;;;;;;;;;;;16.20;99.90;;;;;;4932930;29;19934;-88
2023/09/09 05:42:06;;;;;;;;;;;16.20;99.90;;;;;;4933848;29;19927;-88
2023/09/09 05:44:33;;;;;;;;;;;16.30;99.90;;;;;;4933980;29;19977;-87
2023/09/09 05:46:59;;;;;;;;;;;16.30;99.90;;;;;;4935622;29;19931;-88
2023/09/09 05:49:24;;;;;;;;;;;16.40;99.90;;;;;;4934784;28;19926;-87
2023/09/09 05:51:50;;;;;;;;;;;16.50;99.90;;;;;;4933586;28;19957;-88
2023/09/09 05:54:15;;;;;;;;;;;16.50;99.90;;;;;;4917372;29;19935;-88
2023/09/09 05:56:41;;;;;;;;;;;16.50;99.90;;;;;;4935989;28;20009;-88
2023/09/09 05:59:08;;;;;;;;;;;16.70;99.90;;;;;;4933294;29;19989;-89
2023/09/09 06:01:33;;;;;;;;;;;16.70;99.90;;;;;;4933390;28;20038;-89
2023/09/09 06:03:59;;;;;;;;;;;16.80;99.90;;;;;;4934677;29;20606;-88
2023/09/09 06:06:25;;;;;;;;;;;16.80;99.90;;;;;;4932527;29;19931;-88
2023/09/09 06:08:50;;;;;;;;;;;16.80;99.90;;;;;;4948319;28;19934;-89
2023/09/09 06:11:16;;;;;;;;;;;16.90;99.90;;;;;;4931436;28;19998;-88
2023/09/09 06:13:41;;;;;;;;;;;16.90;99.90;;;;;;4933582;29;19958;-88
2023/09/09 06:16:07;;;;;;;;;;;17.00;99.90;;;;;;4933444;29;19944;-88
2023/09/09 06:18:33;;;;;;;;;;;17.10;99.90;;;;;;4919183;29;19933;-89
2023/09/09 06:20:58;;;;;;;;;;;17.10;99.90;;;;;;4934328;29;20389;-89
2023/09/09 06:23:24;;;;;;;;;;;17.20;99.90;;;;;;4950669;28;19927;-89
2023/09/09 06:25:50;;;;;;;;;;;17.20;99.90;;;;;;4935790;28;19935;-89
2023/09/09 06:28:15;;;;;;;;;;;17.30;99.90;;;;;;4942137;28;19935;-89
2023/09/09 06:30:42;;;;;;;;;;;17.40;99.90;;;;;;4941025;29;19931;-89
2023/09/09 06:33:07;;;;;;;;;;;17.50;99.90;;;;;;4940126;29;20002;-89
2023/09/09 06:35:33;;;;;;;;;;;17.60;99.90;;;;;;4943859;29;19927;-90
2023/09/09 06:37:58;;;;;;;;;;;17.70;99.90;;;;;;4937707;28;19931;-89
2023/09/09 06:40:24;;;;;;;;;;;17.80;99.90;;;;;;4938144;28;19934;-88
2023/09/09 06:42:50;;;;;;;;;;;17.90;99.90;;;;;;4934937;29;19926;-88
2023/09/09 06:45:15;;;;;;;;;;;18.00;99.90;;;;;;4938266;29;19953;-89
2023/09/09 06:47:42;;;;;;;;;;;18.20;99.90;;;;;;4935114;29;19983;-88
2023/09/09 06:50:08;;;;;;;;;;;18.20;99.90;;;;;;4935447;29;19927;-89
2023/09/09 06:52:33;;;;;;;;;;;18.30;99.90;;;;;;4935810;29;19933;-89
2023/09/09 06:54:59;;;;;;;;;;;18.40;99.90;;;;;;4937983;28;19938;-89
2023/09/09 06:57:24;;;;;;;;;;;18.40;99.90;;;;;;4934037;29;20428;-88
2023/09/09 06:59:50;;;;;;;;;;;18.60;99.90;;;;;;4946850;28;20451;-89
2023/09/09 07:02:16;;;;;;;;;;;18.70;99.90;;;;;;4931753;28;19931;-88
2023/09/09 07:04:41;;;;;;;;;;;18.80;99.90;;;;;;4932356;28;19940;-89
2023/09/09 07:07:07;;;;;;;;;;;18.90;99.90;;;;;;4932292;29;19930;-88
2023/09/09 07:09:33;;;;;;;;;;;19.10;99.90;;;;;;4936927;29;19930;-89
2023/09/09 07:11:59;;;;;;;;;;;19.30;99.90;;;;;;4948548;28;21212;-89
2023/09/09 07:14:24;;;;;;;;;;;19.70;99.90;;;;;;4935722;28;19965;-89
2023/09/09 07:16:50;;;;;;;;;;;20.30;99.90;;;;;;4952002;28;19927;-89
2023/09/09 07:19:15;;;;;;;;;;;21.10;99.90;;;;;;4937594;29;20483;-89
2023/09/09 07:21:41;;;;;;;;;;;21.70;99.90;;;;;;4935393;29;19934;-89
2023/09/09 07:24:07;;;;;;;;;;;22.40;99.90;;;;;;4933670;28;19937;-90
2023/09/09 07:26:32;;;;;;;;;;;23.00;99.90;;;;;;4936425;28;19927;-89
2023/09/09 07:28:58;;;;;;;;;;;23.50;99.90;;;;;;4938677;28;22299;-89
2023/09/09 07:31:23;;;;;;;;;;;23.90;99.90;;;;;;4937995;28;19953;-89
2023/09/09 07:33:52;;;;;;;;;;;24.30;99.90;;;;;;4931921;29;19934;-90
2023/09/09 07:36:17;;;;;;;;;;;24.70;99.90;;;;;;4939074;29;19942;-90
2023/09/09 07:38:43;;;;;;;;;;;25.00;99.90;;;;;;4939513;28;19935;-89
2023/09/09 07:41:08;;;;;;;;;;;25.20;99.90;;;;;;4954233;28;19986;-90
2023/09/09 07:43:34;;;;;;;;;;;25.40;99.90;;;;;;4935488;29;19932;-89
2023/09/09 07:45:59;;;;;;;;;;;25.60;99.90;;;;;;4939375;29;19985;-90
2023/09/09 07:48:25;;;;;;;;;;;25.80;99.90;;;;;;4941074;29;19994;-90
2023/09/09 07:50:51;;;;;;;;;;;26.00;99.90;;;;;;4961991;28;19941;-90
2023/09/09 07:53:17;;;;;;;;;;;26.10;99.90;;;;;;4936510;29;19935;-89
2023/09/09 07:55:42;;;;;;;;;;;26.30;99.90;;;;;;4936680;29;19939;-88
2023/09/09 07:58:08;;;;;;;;;;;26.40;99.90;;;;;;4937349;28;19953;-86
2023/09/09 08:00:36;;;;;;;;;;;26.60;99.90;;;;;;4935394;29;19974;-89
2023/09/09 08:03:02;;;;;;;;;;;26.60;99.90;;;;;;4936097;28;19967;-90
2023/09/09 08:05:28;;;;;;;;;;;26.80;99.90;;;;;;4917729;29;19927;-90
2023/09/09 08:07:54;;;;;;;;;;;27.10;99.90;;;;;;4926708;29;19933;-89
2023/09/09 08:10:20;;;;;;;;;;;27.30;99.90;;;;;;4939017;29;19927;-90
2023/09/09 08:12:46;;;;;;;;;;;27.30;99.90;;;;;;4929602;29;19931;-91
2023/09/09 08:15:12;;;;;;;;;;;27.50;99.90;;;;;;4918743;28;19934;-90
2023/09/09 08:17:38;;;;;;;;;;;27.70;99.90;;;;;;4918588;29;19934;-90
2023/09/09 08:20:07;;;;;;;;;;;27.80;99.90;;;;;;4939078;28;19927;-89
2023/09/09 08:22:35;;;;;;;;;;;27.90;99.90;;;;;;4939585;29;19933;-90
2023/09/09 08:25:02;;;;;;;;;;;28.00;99.90;;;;;;4939573;28;20428;-90
2023/09/09 08:27:28;;;;;;;;;;;28.20;99.90;;;;;;4938636;28;20350;-91
2023/09/09 08:29:54;;;;;;;;;;;28.50;99.90;;;;;;5005557;28;19952;-91
2023/09/09 08:32:20;;;;;;;;;;;28.60;99.90;;;;;;4936736;28;19934;-90
2023/09/09 08:34:45;;;;;;;;;;;28.90;99.90;;;;;;4922720;28;19938;-90
2023/09/09 08:37:11;;;;;;;;;;;29.00;99.90;;;;;;4939833;29;19938;-90
2023/09/09 08:39:38;;;;;;;;;;;29.00;99.90;;;;;;4927707;29;19973;-90
2023/09/09 08:42:09;;;;;;;;;;;29.00;99.90;;;;;;4953122;28;20338;-90
2023/09/09 08:44:59;;;;;;;;;;;28.90;99.90;;;;;;4936843;29;20829;-90
2023/09/09 08:47:25;;;;;;;;;;;28.90;99.90;;;;;;4938361;29;19950;-91
2023/09/09 08:49:52;;;;;;;;;;;29.10;99.90;;;;;;4923162;29;19927;-90
2023/09/09 08:52:27;;;;;;;;;;;29.20;99.90;;;;;;4921467;29;20342;-90
2023/09/09 08:54:53;;;;;;;;;;;29.20;99.90;;;;;;4937943;29;19927;-91
2023/09/09 08:57:19;;;;;;;;;;;29.10;99.90;;;;;;4922886;29;20459;-90
2023/09/09 08:59:47;;;;;;;;;;;29.10;99.90;;;;;;4938496;29;19937;-90
2023/09/09 09:02:12;;;;;;;;;;;29.10;99.90;;;;;;4940397;29;19927;-89
2023/09/09 09:04:38;;;;;;;;;;;29.20;99.90;;;;;;5006611;28;19998;-91
2023/09/09 09:07:04;;;;;;;;;;;29.40;99.90;;;;;;4938148;28;19934;-91
2023/09/09 09:09:30;;;;;;;;;;;29.50;99.90;;;;;;4922227;29;20021;-91
2023/09/09 09:12:03;;;;;;;;;;;29.40;99.90;;;;;;4938843;29;19966;-90
2023/09/09 09:14:28;;;;;;;;;;;29.40;99.90;;;;;;4937865;28;20041;-90
2023/09/09 09:16:54;;;;;;;;;;;29.40;99.90;;;;;;4938132;29;19926;-90
2023/09/09 09:19:27;;;;;;;;;;;29.50;99.90;;;;;;4937734;28;19962;-90
2023/09/09 09:21:53;;;;;;;;;;;29.50;99.90;;;;;;5002577;28;20313;-90
2023/09/09 09:24:26;;;;;;;;;;;29.50;99.90;;;;;;4938613;28;19927;-90
2023/09/09 09:26:52;;;;;;;;;;;29.50;99.90;;;;;;4923495;28;19962;-92
2023/09/09 09:29:19;;;;;;;;;;;29.60;99.90;;;;;;4932210;29;20005;-92
2023/09/09 09:31:52;;;;;;;;;;;29.70;99.90;;;;;;4915867;28;19934;-92
2023/09/09 09:34:19;;;;;;;;;;;29.80;99.90;;;;;;4942997;28;19935;-90
2023/09/09 09:36:45;;;;;;;;;;;29.90;99.90;;;;;;4938352;28;19927;-92
2023/09/09 09:39:11;;;;;;;;;;;30.00;99.90;;;;;;5004311;28;20069;-92
2023/09/09 09:41:39;;;;;;;;;;;30.10;99.90;;;;;;4948707;28;19926;-92
2023/09/09 09:44:16;;;;;;;;;;;30.40;99.90;;;;;;4938296;29;19931;-91
2023/09/09 09:46:41;;;;;;;;;;;30.50;99.90;;;;;;4928019;28;19935;-92
2023/09/09 09:49:08;;;;;;;;;;;30.60;99.90;;;;;;4937304;28;19986;-91
2023/09/09 09:51:43;;;;;;;;;;;30.80;99.90;;;;;;4918586;28;19970;-91
2023/09/09 09:54:09;;;;;;;;;;;30.70;99.90;;;;;;4932888;28;19949;-92
2023/09/09 09:56:36;;;;;;;;;;;30.80;99.90;;;;;;4923122;28;20025;-92
2023/09/09 09:59:01;;;;;;;;;;;30.90;99.90;;;;;;4922255;29;20335;-93
2023/09/09 10:01:27;;;;;;;;;;;31.00;99.90;;;;;;4928448;29;19986;-93
2023/09/09 10:03:57;;;;;;;;;;;31.00;99.90;;;;;;4939417;29;19927;-93
2023/09/09 10:06:27;;;;;;;;;;;31.00;99.90;;;;;;4941155;29;19926;-93
2023/09/09 10:09:08;;;;;;;;;;;31.10;99.90;;;;;;4911581;28;19942;-94
2023/09/09 10:11:37;;;;;;;;;;;31.10;99.90;;;;;;4940288;29;20401;-92
2023/09/09 10:14:16;;;;;;;;;;;30.90;99.90;;;;;;4940782;29;19927;-94
2023/09/09 10:16:42;;;;;;;;;;;30.60;99.90;;;;;;4921729;29;19927;-93
2023/09/09 10:19:10;;;;;;;;;;;30.50;99.90;;;;;;4941146;29;20009;-93
2023/09/09 10:21:36;;;;;;;;;;;30.30;99.90;;;;;;4940713;29;20181;-93
2023/09/09 10:24:03;;;;;;;;;;;30.20;99.90;;;;;;4941929;29;19941;-93
2023/09/09 10:26:29;;;;;;;;;;;30.00;99.90;;;;;;4935259;29;19931;-93
2023/09/09 10:28:59;;;;;;;;;;;29.80;99.90;;;;;;4940429;29;20029;-93
2023/09/09 10:31:28;;;;;;;;;;;29.70;99.90;;;;;;4935953;28;19990;-93
2023/09/09 10:33:56;;;;;;;;;;;29.60;99.90;;;;;;4940174;29;19931;-93
2023/09/09 10:36:23;;;;;;;;;;;29.50;99.90;;;;;;4927113;28;19934;-93
2023/09/09 10:38:49;;;;;;;;;;;29.50;99.90;;;;;;4946077;29;20532;-93
2023/09/09 10:41:15;;;;;;;;;;;29.50;99.90;;;;;;4932027;28;20381;-92
2023/09/09 10:43:41;;;;;;;;;;;29.50;99.90;;;;;;4920981;29;19927;-93
2023/09/09 10:46:07;;;;;;;;;;;29.50;99.90;;;;;;4924474;29;19931;-92
2023/09/09 10:48:33;;;;;;;;;;;29.60;99.90;;;;;;4933753;29;19927;-93
2023/09/09 10:51:04;;;;;;;;;;;29.60;99.90;;;;;;4911845;28;20352;-91
2023/09/09 10:53:30;;;;;;;;;;;29.60;99.90;;;;;;4945256;28;19931;-92
2023/09/09 10:55:58;;;;;;;;;;;29.60;99.90;;;;;;4924080;29;19988;-93
2023/09/09 10:58:33;;;;;;;;;;;29.60;99.90;;;;;;4934131;29;19994;-93
2023/09/09 11:01:02;;;;;;;;;;;29.60;99.90;;;;;;4918261;28;20026;-90
2023/09/09 11:03:48;;;;;;;;;;;29.60;99.90;;;;;;4941399;28;19927;-90
2023/09/09 11:06:27;;;;;;;;;;;29.70;99.90;;;;;;4938196;28;19949;-90
2023/09/09 11:08:58;;;;;;;;;;;29.80;99.90;;;;;;4931692;29;19949;-91
2023/09/09 11:11:31;;;;;;;;;;;29.80;99.90;;;;;;4934820;28;19985;-91
2023/09/09 11:14:04;;;;;;;;;;;29.90;99.90;;;;;;4951713;28;19934;-91
2023/09/09 11:16:37;;;;;;;;;;;29.90;99.90;;;;;;4923539;29;19926;-90
2023/09/09 11:19:13;;;;;;;;;;;29.90;99.90;;;;;;4935067;28;19998;-91
2023/09/09 11:21:41;;;;;;;;;;;29.90;99.90;;;;;;4935507;29;19926;-92
2023/09/09 11:24:07;;;;;;;;;;;29.90;99.90;;;;;;4939816;29;19957;-91
2023/09/09 11:26:38;;;;;;;;;;;30.00;99.90;;;;;;4930756;28;19926;-91
2023/09/09 11:29:04;;;;;;;;;;;30.00;99.90;;;;;;4938068;29;19974;-91
2023/09/09 11:31:30;;;;;;;;;;;30.00;99.90;;;;;;4924824;28;20377;-90
2023/09/09 11:33:59;;;;;;;;;;;30.00;99.90;;;;;;4939295;29;19969;-91
2023/09/09 11:36:25;;;;;;;;;;;30.00;99.90;;;;;;4939922;28;20400;-91
2023/09/09 11:38:51;;;;;;;;;;;30.10;99.90;;;;;;4939570;29;19965;-91
2023/09/09 11:41:23;;;;;;;;;;;30.10;99.90;;;;;;4925266;29;19973;-91
2023/09/09 11:44:03;;;;;;;;;;;30.10;99.90;;;;;;4933889;29;19927;-93
2023/09/09 11:46:35;;;;;;;;;;;30.10;99.90;;;;;;4946741;28;19926;-91
2023/09/09 11:49:00;;;;;;;;;;;30.00;99.80;;;;;;4955690;28;19979;-90
2023/09/09 11:51:27;;;;;;;;;;;30.00;99.90;;;;;;4941336;29;19938;-91
2023/09/09 11:53:53;;;;;;;;;;;29.90;99.90;;;;;;4912302;29;19937;-91
2023/09/09 11:56:19;;;;;;;;;;;29.90;99.90;;;;;;4949278;28;19982;-93
2023/09/09 11:58:46;;;;;;;;;;;29.90;99.90;;;;;;4933578;28;19990;-91
2023/09/09 12:01:12;;;;;;;;;;;30.00;99.90;;;;;;4955002;28;20424;-91
2023/09/09 12:03:38;;;;;;;;;;;30.00;99.90;;;;;;4938082;29;19927;-91
2023/09/09 12:06:06;;;;;;;;;;;30.00;99.80;;;;;;4924306;29;19931;-90
2023/09/09 12:08:31;;;;;;;;;;;30.00;99.90;;;;;;4937994;29;19927;-91
2023/09/09 12:10:58;;;;;;;;;;;30.10;99.90;;;;;;4929532;28;19946;-92
2023/09/09 12:13:24;;;;;;;;;;;30.10;99.00;;;;;;4932347;28;20428;-92
2023/09/09 12:15:50;;;;;;;;;;;30.10;98.90;;;;;;4939080;28;19930;-91
2023/09/09 12:18:16;;;;;;;;;;;30.10;99.60;;;;;;4920499;28;19926;-89
2023/09/09 12:20:57;;;;;;;;;;;30.10;99.30;;;;;;4924659;29;19970;-91
2023/09/09 12:23:26;;;;;;;;;;;30.10;98.30;;;;;;4942959;28;20484;-90
2023/09/09 12:25:53;;;;;;;;;;;30.10;99.40;;;;;;4924196;29;19927;-89
2023/09/09 12:28:18;;;;;;;;;;;30.10;99.10;;;;;;4940181;29;19934;-90
2023/09/09 12:30:44;;;;;;;;;;;30.10;98.40;;;;;;4907044;28;19930;-89
2023/09/09 12:33:13;;;;;;;;;;;30.00;97.80;;;;;;4955123;28;19985;-89
2023/09/09 12:35:43;;;;;;;;;;;30.00;97.30;;;;;;4923899;28;20017;-90
2023/09/09 12:38:10;;;;;;;;;;;29.90;96.90;;;;;;4922432;29;19927;-89
2023/09/09 12:40:55;;;;;;;;;;;30.00;97.60;;;;;;4939624;29;19934;-89
2023/09/09 12:43:25;;;;;;;;;;;30.00;97.90;;;;;;4951323;28;19927;-90
2023/09/09 12:45:52;;;;;;;;;;;30.00;96.80;;;;;;4923903;28;19935;-90
2023/09/09 12:48:18;;;;;;;;;;;30.00;97.00;;;;;;4939048;29;19927;-89
2023/09/09 12:50:44;;;;;;;;;;;30.00;96.60;;;;;;5022258;28;19994;-88
2023/09/09 12:53:10;;;;;;;;;;;30.00;95.90;;;;;;4936619;28;19935;-90
2023/09/09 12:55:36;;;;;;;;;;;30.00;95.80;;;;;;4939181;28;19983;-90
2023/09/09 12:58:02;;;;;;;;;;;29.90;94.80;;;;;;4938555;29;19935;-90
2023/09/09 13:00:28;;;;;;;;;;;29.80;96.00;;;;;;4921349;28;19927;-90
2023/09/09 13:02:53;;;;;;;;;;;29.80;95.10;;;;;;4938608;29;20385;-89
2023/09/09 13:05:19;;;;;;;;;;;29.70;94.00;;;;;;4928868;29;19953;-88
2023/09/09 13:07:45;;;;;;;;;;;29.60;95.00;;;;;;4917766;28;19938;-86
2023/09/09 13:10:10;;;;;;;;;;;29.60;95.10;;;;;;4939077;29;19926;-87
2023/09/09 13:12:36;;;;;;;;;;;29.50;95.00;;;;;;4915879;29;19930;-89
2023/09/09 13:15:02;;;;;;;;;;;29.60;94.60;;;;;;5020881;28;19937;-84
2023/09/09 13:17:28;;;;;;;;;;;29.70;94.70;;;;;;4933963;28;19927;-82
2023/09/09 13:19:53;;;;;;;;;;;29.70;93.60;;;;;;4923480;29;19952;-84
2023/09/09 13:22:19;;;;;;;;;;;29.60;94.20;;;;;;4950179;29;20017;-85
2023/09/09 13:24:44;;;;;;;;;;;29.50;94.00;;;;;;4939357;28;19930;-84
2023/09/09 13:27:10;;;;;;;;;;;29.60;95.20;;;;;;4934599;29;19935;-84
2023/09/09 13:29:35;;;;;;;;;;;29.60;95.50;;;;;;5009409;28;19935;-95
2023/09/09 13:32:01;;;;;;;;;;;29.60;94.10;;;;;;4954968;29;19931;-92
2023/09/09 13:34:27;;;;;;;;;;;29.60;94.90;;;;;;4944755;28;19934;-92
2023/09/09 13:36:53;;;;;;;;;;;29.60;93.80;;;;;;4925216;29;20345;-91
2023/09/09 13:39:18;;;;;;;;;;;29.60;94.80;;;;;;4938205;29;20005;-92
2023/09/09 13:41:44;;;;;;;;;;;29.50;95.00;;;;;;4938660;29;19930;-92
2023/09/09 13:44:10;;;;;;;;;;;29.60;94.20;;;;;;4936364;28;19935;-90
2023/09/09 13:46:35;;;;;;;;;;;29.60;94.80;;;;;;4951697;28;19946;-92
2023/09/09 13:49:02;;;;;;;;;;;29.50;94.60;;;;;;4937967;29;19941;-92
2023/09/09 13:51:28;;;;;;;;;;;29.60;93.70;;;;;;4938553;28;19970;-91
2023/09/09 13:53:53;;;;;;;;;;;29.70;94.30;;;;;;4938390;29;19976;-91
2023/09/09 13:56:19;;;;;;;;;;;29.80;92.60;;;;;;4937947;29;19927;-92
2023/09/09 13:58:44;;;;;;;;;;;29.70;91.80;;;;;;4938769;28;20412;-90
2023/09/09 14:01:10;;;;;;;;;;;29.80;93.20;;;;;;4938415;28;19942;-91
2023/09/09 14:03:35;;;;;;;;;;;29.70;92.70;;;;;;4922329;29;19930;-91
2023/09/09 14:06:01;;;;;;;;;;;29.80;92.70;;;;;;4921352;29;19927;-90
2023/09/09 14:08:27;;;;;;;;;;;29.80;91.30;;;;;;4920238;28;20289;-91
2023/09/09 14:10:53;;;;;;;;;;;29.80;89.80;;;;;;4929840;29;19935;-92
2023/09/09 14:13:18;;;;;;;;;;;29.80;91.60;;;;;;4970492;28;20408;-91